Time;durP1;ratioP1;P1;durP2;ratioP2;P2;SDS_P1;SDS_P2;PMS_P1;PMS_P2;Temp;Humidity;BMP_temperature;BMP_pressure;BME280_temperature;BME280_humidity;BME280_pressure;Samples;Min_cycle;Max_cycle;Signal;HPM_P1;HPM_P2
2022/03/14 00:00:11;;;;;;;80.47;38.08;;;;;;;;;;5056639;28;20035;-65
2022/03/14 00:02:38;;;;;;;70.63;35.67;;;;;;;;;;5074673;28;20039;-65
2022/03/14 00:05:05;;;;;;;93.60;43.15;;;;;;;;;;5074278;28;20032;-65
2022/03/14 00:07:34;;;;;;;92.32;42.42;;;;;;;;;;5074506;28;20031;-65
2022/03/14 00:10:01;;;;;;;82.65;41.33;;;;;;;;;;5074445;28;20411;-65
2022/03/14 00:12:28;;;;;;;85.13;40.22;;;;;;;;;;5074415;28;20456;-64
2022/03/14 00:14:55;;;;;;;87.68;39.58;;;;;;;;;;5074332;28;20041;-64
2022/03/14 00:17:22;;;;;;;77.20;37.22;;;;;;;;;;5074320;28;20113;-64
2022/03/14 00:19:49;;;;;;;85.10;40.65;;;;;;;;;;5074270;28;20182;-64
2022/03/14 00:22:17;;;;;;;80.93;38.33;;;;;;;;;;5056374;28;20119;-64
2022/03/14 00:24:43;;;;;;;79.50;34.78;;;;;;;;;;5056206;28;20032;-64
2022/03/14 00:27:09;;;;;;;75.07;35.80;;;;;;;;;;5074114;28;20031;-64
2022/03/14 00:29:35;;;;;;;75.47;38.17;;;;;;;;;;5056110;28;20396;-64
2022/03/14 00:32:01;;;;;;;77.68;36.30;;;;;;;;;;5074360;28;20025;-64
2022/03/14 00:34:28;;;;;;;80.20;35.42;;;;;;;;;;5054936;28;20039;-64
2022/03/14 00:36:54;;;;;;;70.72;33.85;;;;;;;;;;5074205;28;20025;-64
2022/03/14 00:39:21;;;;;;;66.82;32.85;;;;;;;;;;5055945;28;20028;-64
2022/03/14 00:41:47;;;;;;;67.47;33.60;;;;;;;;;;5055882;28;20033;-64
2022/03/14 00:44:15;;;;;;;71.13;34.60;;;;;;;;;;5073394;28;20477;-64
2022/03/14 00:46:41;;;;;;;74.72;34.08;;;;;;;;;;5055832;28;20036;-65
2022/03/14 00:49:08;;;;;;;72.15;34.28;;;;;;;;;;5055745;28;20025;-66
2022/03/14 00:51:34;;;;;;;69.63;34.97;;;;;;;;;;5073605;28;20472;-67
2022/03/14 00:54:01;;;;;;;74.28;35.50;;;;;;;;;;5073562;28;20487;-67
2022/03/14 00:56:28;;;;;;;71.93;34.65;;;;;;;;;;5073812;28;20030;-67
2022/03/14 00:58:54;;;;;;;74.30;36.40;;;;;;;;;;5073529;28;20027;-66
2022/03/14 01:01:21;;;;;;;87.68;37.67;;;;;;;;;;5073434;28;20035;-66
2022/03/14 01:03:47;;;;;;;78.53;37.13;;;;;;;;;;5073524;28;20495;-66
2022/03/14 01:06:13;;;;;;;74.25;36.88;;;;;;;;;;5073392;28;20033;-66
2022/03/14 01:08:40;;;;;;;72.63;35.83;;;;;;;;;;5055423;28;20150;-65
2022/03/14 01:11:06;;;;;;;77.63;35.58;;;;;;;;;;5073328;28;20028;-65
2022/03/14 01:13:32;;;;;;;75.95;36.10;;;;;;;;;;5073432;28;20417;-65
2022/03/14 01:15:59;;;;;;;81.57;37.45;;;;;;;;;;5073305;28;20038;-65
2022/03/14 01:18:25;;;;;;;72.75;34.97;;;;;;;;;;5055307;28;20032;-64
2022/03/14 01:20:52;;;;;;;69.05;34.47;;;;;;;;;;5073225;28;20032;-64
2022/03/14 01:23:18;;;;;;;67.75;34.33;;;;;;;;;;5073230;28;20369;-64
2022/03/14 01:25:45;;;;;;;76.80;34.83;;;;;;;;;;5073475;28;20048;-64
2022/03/14 01:28:12;;;;;;;67.35;34.28;;;;;;;;;;5073139;28;20036;-65
2022/03/14 01:30:43;;;;;;;64.07;32.35;;;;;;;;;;5073143;28;20028;-65
2022/03/14 01:33:09;;;;;;;63.95;32.55;;;;;;;;;;5055067;28;20070;-64
2022/03/14 01:35:36;;;;;;;66.43;33.90;;;;;;;;;;5055034;28;20033;-65
2022/03/14 01:38:03;;;;;;;76.70;35.80;;;;;;;;;;5073037;28;20020;-65
2022/03/14 01:40:29;;;;;;;80.03;37.10;;;;;;;;;;5054987;28;20028;-65
2022/03/14 01:42:55;;;;;;;78.07;36.67;;;;;;;;;;5073065;28;20050;-65
2022/03/14 01:45:22;;;;;;;74.20;36.08;;;;;;;;;;5072239;28;20117;-65
2022/03/14 01:47:48;;;;;;;76.32;35.42;;;;;;;;;;5072961;28;20073;-65
2022/03/14 01:50:17;;;;;;;72.20;33.10;;;;;;;;;;5072906;28;20029;-65
2022/03/14 01:52:44;;;;;;;68.57;34.22;;;;;;;;;;5072627;28;20377;-65
2022/03/14 01:55:11;;;;;;;69.53;34.15;;;;;;;;;;5072817;28;20478;-65
2022/03/14 01:57:37;;;;;;;76.68;36.40;;;;;;;;;;5072866;28;20028;-65
2022/03/14 02:00:05;;;;;;;70.30;33.60;;;;;;;;;;5054890;28;20025;-65
2022/03/14 02:02:31;;;;;;;70.50;34.00;;;;;;;;;;5054879;28;20036;-65
2022/03/14 02:04:58;;;;;;;65.03;32.70;;;;;;;;;;5072785;28;20035;-65
2022/03/14 02:07:25;;;;;;;67.55;32.22;;;;;;;;;;5054727;28;20021;-65
2022/03/14 02:09:51;;;;;;;71.40;32.88;;;;;;;;;;5072722;28;20108;-64
2022/03/14 02:12:18;;;;;;;76.90;35.60;;;;;;;;;;5072726;28;20468;-65
2022/03/14 02:14:44;;;;;;;76.80;35.90;;;;;;;;;;5072684;28;20033;-66
2022/03/14 02:17:14;;;;;;;75.68;34.45;;;;;;;;;;5072938;28;20456;-66
2022/03/14 02:19:41;;;;;;;66.22;31.55;;;;;;;;;;5054641;28;20071;-66
2022/03/14 02:22:13;;;;;;;73.78;34.13;;;;;;;;;;5072611;28;20120;-66
2022/03/14 02:24:39;;;;;;;65.68;32.78;;;;;;;;;;5072657;28;20036;-67
2022/03/14 02:27:06;;;;;;;66.28;31.42;;;;;;;;;;5072577;28;20461;-67
2022/03/14 02:29:32;;;;;;;69.95;32.53;;;;;;;;;;5072552;28;20471;-67
2022/03/14 02:31:58;;;;;;;69.95;32.90;;;;;;;;;;5072536;28;20583;-66
2022/03/14 02:34:24;;;;;;;69.03;30.70;;;;;;;;;;5072497;28;20035;-66
2022/03/14 02:36:51;;;;;;;63.97;30.17;;;;;;;;;;5072723;28;20024;-66
2022/03/14 02:39:17;;;;;;;68.10;30.58;;;;;;;;;;5072465;28;20090;-66
2022/03/14 02:41:43;;;;;;;69.70;32.92;;;;;;;;;;5072492;28;20024;-66
2022/03/14 02:44:10;;;;;;;81.57;38.75;;;;;;;;;;5072497;28;20521;-66
2022/03/14 02:46:40;;;;;;;80.10;37.65;;;;;;;;;;5072417;28;20028;-66
2022/03/14 02:49:10;;;;;;;76.57;35.88;;;;;;;;;;5054417;28;20028;-65
2022/03/14 02:51:40;;;;;;;73.18;33.85;;;;;;;;;;5072307;28;20029;-66
2022/03/14 02:54:10;;;;;;;65.63;31.33;;;;;;;;;;5072329;28;20104;-66
2022/03/14 02:56:37;;;;;;;68.57;31.52;;;;;;;;;;5072338;28;20037;-66
2022/03/14 02:59:04;;;;;;;71.60;33.83;;;;;;;;;;5057113;28;20021;-66
2022/03/14 03:01:30;;;;;;;72.47;33.80;;;;;;;;;;5075737;28;20036;-65
2022/03/14 03:03:56;;;;;;;80.78;36.22;;;;;;;;;;5057860;28;20021;-66
2022/03/14 03:06:23;;;;;;;80.53;36.13;;;;;;;;;;5075701;28;20021;-66
2022/03/14 03:08:52;;;;;;;75.07;34.80;;;;;;;;;;5075698;28;20090;-66
2022/03/14 03:11:19;;;;;;;74.00;35.72;;;;;;;;;;5075911;28;20027;-66
2022/03/14 03:13:47;;;;;;;76.78;35.75;;;;;;;;;;5075640;28;20108;-65
2022/03/14 03:16:14;;;;;;;79.35;33.80;;;;;;;;;;5075548;28;20024;-65
2022/03/14 03:18:41;;;;;;;76.70;34.60;;;;;;;;;;5057535;28;20074;-65
2022/03/14 03:21:07;;;;;;;80.90;35.70;;;;;;;;;;5075211;28;20045;-65
2022/03/14 03:23:34;;;;;;;76.30;34.33;;;;;;;;;;5057482;28;20020;-65
2022/03/14 03:26:00;;;;;;;81.28;32.60;;;;;;;;;;5075333;28;20023;-65
2022/03/14 03:28:26;;;;;;;77.15;36.03;;;;;;;;;;5075290;28;20025;-64
2022/03/14 03:30:53;;;;;;;78.50;37.35;;;;;;;;;;5075290;28;20052;-65
2022/03/14 03:33:19;;;;;;;74.32;33.65;;;;;;;;;;5075239;28;20465;-65
2022/03/14 03:35:46;;;;;;;77.20;32.80;;;;;;;;;;5075121;28;20116;-64
2022/03/14 03:38:12;;;;;;;68.38;32.33;;;;;;;;;;5075148;28;20411;-64
2022/03/14 03:40:38;;;;;;;68.20;32.17;;;;;;;;;;5057033;28;20380;-64
2022/03/14 03:43:04;;;;;;;77.88;35.35;;;;;;;;;;5075097;28;20108;-65
2022/03/14 03:45:30;;;;;;;81.80;36.47;;;;;;;;;;5034234;28;20056;-64
2022/03/14 03:47:57;;;;;;;77.82;34.72;;;;;;;;;;5034736;28;20021;-65
2022/03/14 03:50:23;;;;;;;71.55;35.60;;;;;;;;;;5034943;28;20111;-64
2022/03/14 03:52:49;;;;;;;77.80;35.65;;;;;;;;;;5033587;28;20160;-64
2022/03/14 03:55:15;;;;;;;100.95;36.40;;;;;;;;;;5034919;28;20053;-64
2022/03/14 03:57:41;;;;;;;68.63;31.08;;;;;;;;;;5033493;28;20025;-65
2022/03/14 04:00:12;;;;;;;91.05;35.22;;;;;;;;;;5034765;28;20470;-64
2022/03/14 04:02:39;;;;;;;89.93;37.73;;;;;;;;;;5033539;28;20036;-64
2022/03/14 04:05:06;;;;;;;76.95;34.20;;;;;;;;;;5034745;28;20033;-64
2022/03/14 04:07:34;;;;;;;155.57;59.45;;;;;;;;;;5034652;28;20052;-64
2022/03/14 04:10:01;;;;;;;105.30;45.37;;;;;;;;;;5033163;28;20143;-65
2022/03/14 04:12:27;;;;;;;94.40;41.53;;;;;;;;;;5033210;28;20120;-64
2022/03/14 04:14:56;;;;;;;98.23;42.83;;;;;;;;;;5034152;28;20437;-65
2022/03/14 04:17:25;;;;;;;102.60;46.00;;;;;;;;;;5034476;28;20040;-65
2022/03/14 04:19:57;;;;;;;104.78;43.55;;;;;;;;;;5033065;28;20478;-66
2022/03/14 04:22:23;;;;;;;97.25;41.50;;;;;;;;;;5034404;28;20030;-66
2022/03/14 04:24:49;;;;;;;149.65;59.15;;;;;;;;;;5034358;28;20033;-65
2022/03/14 04:27:15;;;;;;;152.83;62.90;;;;;;;;;;5032948;28;20109;-65
2022/03/14 04:29:42;;;;;;;111.47;48.22;;;;;;;;;;5034223;28;20030;-65
2022/03/14 04:32:08;;;;;;;113.73;47.07;;;;;;;;;;5034131;28;20032;-65
2022/03/14 04:34:34;;;;;;;111.33;46.97;;;;;;;;;;5032839;28;20425;-65
2022/03/14 04:37:00;;;;;;;103.43;44.22;;;;;;;;;;5032731;28;20429;-65
2022/03/14 04:39:26;;;;;;;95.13;40.17;;;;;;;;;;5034296;28;20060;-65
2022/03/14 04:41:54;;;;;;;90.32;39.30;;;;;;;;;;5033915;28;20032;-65
2022/03/14 04:44:21;;;;;;;94.37;39.57;;;;;;;;;;5052382;28;20090;-65
2022/03/14 04:46:48;;;;;;;79.10;37.03;;;;;;;;;;5073742;28;20021;-65
2022/03/14 04:49:14;;;;;;;85.25;38.63;;;;;;;;;;5055808;28;20108;-65
2022/03/14 04:51:42;;;;;;;93.68;41.10;;;;;;;;;;5073657;28;20453;-65
2022/03/14 04:54:08;;;;;;;98.50;41.77;;;;;;;;;;5073565;28;20488;-65
2022/03/14 04:56:34;;;;;;;100.25;44.20;;;;;;;;;;5073624;28;20467;-65
2022/03/14 04:59:00;;;;;;;103.00;44.60;;;;;;;;;;5055573;28;20020;-65
2022/03/14 05:01:26;;;;;;;109.15;45.63;;;;;;;;;;5073531;28;20038;-65
2022/03/14 05:03:53;;;;;;;111.73;47.57;;;;;;;;;;5073534;28;20025;-65
2022/03/14 05:06:19;;;;;;;120.57;51.53;;;;;;;;;;5055436;28;20460;-65
2022/03/14 05:08:46;;;;;;;128.50;56.40;;;;;;;;;;5073448;28;20086;-65
2022/03/14 05:11:13;;;;;;;144.82;64.53;;;;;;;;;;5073303;28;20089;-65
2022/03/14 05:13:39;;;;;;;313.65;119.05;;;;;;;;;;5055244;28;20376;-65
2022/03/14 05:16:06;;;;;;;192.93;80.33;;;;;;;;;;5073230;28;20040;-65
2022/03/14 05:18:32;;;;;;;140.10;56.97;;;;;;;;;;5055206;28;20055;-65
2022/03/14 05:20:59;;;;;;;145.37;59.47;;;;;;;;;;5054688;28;20052;-66
2022/03/14 05:23:25;;;;;;;102.30;44.20;;;;;;;;;;5054951;28;20111;-66
2022/03/14 05:25:51;;;;;;;85.83;38.83;;;;;;;;;;5073270;28;20072;-65
2022/03/14 05:28:17;;;;;;;85.60;38.35;;;;;;;;;;5054872;28;20035;-65
2022/03/14 05:30:43;;;;;;;88.17;37.50;;;;;;;;;;5055192;28;20029;-64
2022/03/14 05:33:28;;;;;;;91.50;39.63;;;;;;;;;;5073110;28;20025;-65
2022/03/14 05:35:55;;;;;;;82.20;36.67;;;;;;;;;;5054990;28;20040;-66
2022/03/14 05:38:24;;;;;;;81.35;38.13;;;;;;;;;;5073073;28;20020;-65
2022/03/14 05:40:51;;;;;;;93.00;43.60;;;;;;;;;;5072630;28;20463;-64
2022/03/14 05:43:17;;;;;;;89.18;41.20;;;;;;;;;;5054793;28;20392;-64
2022/03/14 05:45:43;;;;;;;82.97;39.40;;;;;;;;;;5072781;28;20384;-65
2022/03/14 05:48:10;;;;;;;80.93;37.03;;;;;;;;;;5072961;28;20029;-64
2022/03/14 05:50:36;;;;;;;83.22;39.45;;;;;;;;;;5073197;28;20077;-64
2022/03/14 05:53:02;;;;;;;102.82;41.25;;;;;;;;;;5054825;28;20376;-65
2022/03/14 05:55:28;;;;;;;98.27;43.13;;;;;;;;;;5072832;28;20393;-65
2022/03/14 05:57:55;;;;;;;92.63;44.53;;;;;;;;;;5072564;28;20063;-65
2022/03/14 06:00:24;;;;;;;88.10;39.35;;;;;;;;;;5054780;28;20029;-65
2022/03/14 06:02:54;;;;;;;92.60;41.10;;;;;;;;;;5054789;28;20035;-67
2022/03/14 06:05:21;;;;;;;106.25;47.40;;;;;;;;;;5072763;28;20028;-65
2022/03/14 06:07:48;;;;;;;118.03;49.08;;;;;;;;;;5072373;28;20423;-66
2022/03/14 06:10:15;;;;;;;114.53;47.40;;;;;;;;;;5054642;28;20090;-65
2022/03/14 06:12:42;;;;;;;109.60;47.43;;;;;;;;;;5072666;28;20032;-65
2022/03/14 06:15:10;;;;;;;111.43;47.38;;;;;;;;;;5054617;28;20098;-65
2022/03/14 06:17:36;;;;;;;111.40;47.55;;;;;;;;;;5072522;28;20027;-65
2022/03/14 06:20:03;;;;;;;117.33;52.53;;;;;;;;;;5054604;28;20166;-66
2022/03/14 06:22:29;;;;;;;109.13;49.43;;;;;;;;;;5072301;28;20033;-66
2022/03/14 06:24:56;;;;;;;92.18;42.50;;;;;;;;;;5072467;28;20033;-65
2022/03/14 06:27:24;;;;;;;89.82;40.45;;;;;;;;;;5072427;28;20492;-65
2022/03/14 06:29:51;;;;;;;81.90;39.55;;;;;;;;;;5072473;28;20036;-67
2022/03/14 06:32:17;;;;;;;80.88;40.50;;;;;;;;;;5072691;28;20028;-65
2022/03/14 06:34:43;;;;;;;86.13;40.85;;;;;;;;;;5075999;28;20484;-64
2022/03/14 06:37:10;;;;;;;86.65;41.53;;;;;;;;;;5076201;28;20028;-64
2022/03/14 06:39:36;;;;;;;80.82;39.08;;;;;;;;;;5058154;28;20695;-64
2022/03/14 06:42:04;;;;;;;82.95;37.42;;;;;;;;;;5076105;28;20032;-64
2022/03/14 06:44:30;;;;;;;74.20;36.35;;;;;;;;;;5057820;28;20530;-64
2022/03/14 06:46:56;;;;;;;85.90;37.30;;;;;;;;;;5057846;28;20025;-64
2022/03/14 06:49:23;;;;;;;77.75;35.75;;;;;;;;;;5058035;28;20098;-64
2022/03/14 06:51:49;;;;;;;75.72;35.42;;;;;;;;;;5075945;28;20027;-64
2022/03/14 06:54:15;;;;;;;72.95;34.67;;;;;;;;;;5075915;28;20060;-64
2022/03/14 06:56:42;;;;;;;70.47;33.42;;;;;;;;;;5075823;28;20031;-64
2022/03/14 06:59:12;;;;;;;72.70;32.95;;;;;;;;;;5075780;28;20024;-64
2022/03/14 07:01:39;;;;;;;60.75;33.33;;;;;;;;;;5056452;28;20499;-64
2022/03/14 07:04:05;;;;;;;67.80;33.20;;;;;;;;;;5056615;28;20028;-64
2022/03/14 07:06:31;;;;;;;74.50;32.60;;;;;;;;;;5075564;28;20063;-64
2022/03/14 07:08:57;;;;;;;65.53;31.17;;;;;;;;;;5075447;28;20035;-64
2022/03/14 07:11:23;;;;;;;67.93;30.13;;;;;;;;;;5075557;28;20496;-65
2022/03/14 07:13:50;;;;;;;64.72;30.88;;;;;;;;;;5075492;28;20376;-66
2022/03/14 07:16:16;;;;;;;59.55;31.05;;;;;;;;;;5075424;28;20043;-67
2022/03/14 07:18:43;;;;;;;67.53;31.30;;;;;;;;;;5075378;28;20082;-67
2022/03/14 07:21:09;;;;;;;68.35;30.38;;;;;;;;;;5075061;28;20046;-65
2022/03/14 07:23:36;;;;;;;67.05;32.08;;;;;;;;;;5075252;28;20457;-63
2022/03/14 07:26:03;;;;;;;68.68;31.15;;;;;;;;;;5075308;28;20029;-66
2022/03/14 07:28:29;;;;;;;67.75;32.63;;;;;;;;;;5057137;28;20032;-67
2022/03/14 07:30:55;;;;;;;62.20;32.63;;;;;;;;;;5057165;28;20025;-66
2022/03/14 07:33:21;;;;;;;66.80;34.97;;;;;;;;;;5075022;28;20027;-67
2022/03/14 07:35:48;;;;;;;67.07;34.25;;;;;;;;;;5075079;28;20043;-64
2022/03/14 07:38:14;;;;;;;70.65;33.40;;;;;;;;;;5075129;28;20154;-65
2022/03/14 07:40:42;;;;;;;81.32;35.53;;;;;;;;;;5075013;28;20084;-65
2022/03/14 07:43:08;;;;;;;88.90;42.92;;;;;;;;;;5056739;28;20415;-67
2022/03/14 07:45:34;;;;;;;85.80;38.70;;;;;;;;;;5073767;28;20044;-65
2022/03/14 07:48:01;;;;;;;80.20;39.28;;;;;;;;;;5073672;28;20028;-67
2022/03/14 07:50:28;;;;;;;74.97;37.53;;;;;;;;;;5055102;28;20406;-67
2022/03/14 07:52:55;;;;;;;75.13;37.70;;;;;;;;;;5071051;28;20021;-67
2022/03/14 07:55:22;;;;;;;76.68;36.65;;;;;;;;;;5073400;28;20071;-66
2022/03/14 07:57:48;;;;;;;72.22;32.97;;;;;;;;;;5072907;28;20028;-67
2022/03/14 08:00:15;;;;;;;65.78;31.13;;;;;;;;;;5073399;28;20017;-66
2022/03/14 08:02:42;;;;;;;45.70;24.77;;;;;;;;;;5055245;28;20037;-66
2022/03/14 08:05:09;;;;;;;40.97;20.65;;;;;;;;;;5072815;28;20484;-66
2022/03/14 08:07:37;;;;;;;39.38;20.92;;;;;;;;;;5073312;28;20028;-66
2022/03/14 08:10:04;;;;;;;47.13;22.60;;;;;;;;;;5073123;28;20024;-66
2022/03/14 08:12:31;;;;;;;39.22;21.77;;;;;;;;;;5073279;28;20360;-66
2022/03/14 08:14:58;;;;;;;40.88;21.13;;;;;;;;;;5072904;28;20086;-66
2022/03/14 08:17:24;;;;;;;40.55;21.38;;;;;;;;;;5072826;28;20503;-66
2022/03/14 08:19:51;;;;;;;46.08;23.08;;;;;;;;;;5054795;28;20465;-66
2022/03/14 08:22:17;;;;;;;45.20;22.52;;;;;;;;;;5072926;28;20078;-66
2022/03/14 08:24:45;;;;;;;46.80;21.92;;;;;;;;;;5072886;28;20055;-66
2022/03/14 08:27:12;;;;;;;39.95;21.83;;;;;;;;;;5073004;28;20028;-66
2022/03/14 08:29:38;;;;;;;34.88;20.08;;;;;;;;;;5056097;28;20453;-66
2022/03/14 08:32:07;;;;;;;41.00;20.80;;;;;;;;;;5073275;28;20041;-67
2022/03/14 08:34:34;;;;;;;40.53;20.65;;;;;;;;;;5072561;28;20464;-67
2022/03/14 08:37:00;;;;;;;32.80;18.17;;;;;;;;;;5053855;28;20027;-66
2022/03/14 08:39:26;;;;;;;49.75;23.23;;;;;;;;;;5073067;28;20417;-66
2022/03/14 08:41:52;;;;;;;41.22;23.08;;;;;;;;;;5073670;28;20086;-66
2022/03/14 08:44:19;;;;;;;36.88;20.38;;;;;;;;;;5073501;28;20134;-67
2022/03/14 08:46:45;;;;;;;38.40;19.58;;;;;;;;;;5073538;28;20039;-65
2022/03/14 08:49:11;;;;;;;35.28;19.17;;;;;;;;;;5073639;28;20024;-65
2022/03/14 08:51:39;;;;;;;41.63;20.90;;;;;;;;;;5073592;28;20477;-65
2022/03/14 08:54:06;;;;;;;39.50;20.27;;;;;;;;;;5073400;28;20484;-65
2022/03/14 08:56:33;;;;;;;36.30;18.05;;;;;;;;;;5072695;28;20036;-67
2022/03/14 08:58:59;;;;;;;35.95;17.95;;;;;;;;;;5073398;28;20491;-66
2022/03/14 09:01:25;;;;;;;30.77;17.65;;;;;;;;;;5055463;28;20067;-66
2022/03/14 09:03:52;;;;;;;35.78;18.27;;;;;;;;;;5073576;28;20529;-66
2022/03/14 09:06:18;;;;;;;29.02;16.67;;;;;;;;;;5073410;28;20544;-66
2022/03/14 09:08:44;;;;;;;31.15;18.17;;;;;;;;;;5055301;28;20032;-66
2022/03/14 09:11:10;;;;;;;38.58;18.17;;;;;;;;;;5073178;28;20025;-66
2022/03/14 09:13:38;;;;;;;25.13;15.63;;;;;;;;;;5073234;28;20034;-66
2022/03/14 09:16:08;;;;;;;30.50;16.65;;;;;;;;;;5073180;28;20106;-66
2022/03/14 09:18:35;;;;;;;24.77;14.73;;;;;;;;;;5072849;28;20488;-66
2022/03/14 09:21:01;;;;;;;27.00;15.15;;;;;;;;;;5072932;28;20472;-66
2022/03/14 09:23:27;;;;;;;33.53;16.67;;;;;;;;;;5073153;28;20036;-66
2022/03/14 09:25:55;;;;;;;26.65;15.43;;;13.60;53.40;;;;;;5073217;28;20534;-66
2022/03/14 09:28:21;;;;;;;30.40;16.25;;;13.50;54.50;;;;;;5072987;28;20024;-66
2022/03/14 09:30:47;;;;;;;27.25;15.13;;;13.80;58.30;;;;;;5073105;28;20358;-66
2022/03/14 09:33:13;;;;;;;56.70;17.27;;;14.00;53.00;;;;;;5073099;28;20074;-67
2022/03/14 09:35:39;;;;;;;25.25;15.20;;;14.20;54.00;;;;;;5073057;28;20115;-66
2022/03/14 09:38:06;;;;;;;32.22;15.57;;;14.30;52.60;;;;;;5073119;28;20016;-66
2022/03/14 09:40:32;;;;;;;25.25;15.55;;;14.50;52.00;;;;;;5073236;28;20028;-66
2022/03/14 09:43:01;;;;;;;25.65;16.30;;;14.60;51.60;;;;;;5072988;28;20060;-66
2022/03/14 09:45:27;;;;;;;27.15;15.35;;;14.80;53.10;;;;;;5032661;28;20053;-66
2022/03/14 09:47:58;;;;;;;23.73;13.30;;;14.80;50.00;;;;;;5033022;28;20040;-66
2022/03/14 09:50:37;;;;;;;32.95;15.50;;;14.90;49.80;;;;;;5031791;28;20049;-66
2022/03/14 09:53:08;;;;;;;29.05;17.40;;;15.10;51.50;;;;;;5032940;28;20083;-66
2022/03/14 09:55:41;;;;;;;25.17;13.93;;;15.30;50.80;;;;;;5032967;28;20061;-66
2022/03/14 09:58:11;;;;;;;33.97;16.85;;;15.30;48.30;;;;;;5032872;28;20087;-66
2022/03/14 10:00:37;;;;;;;30.05;16.05;;;15.00;49.60;;;;;;5032641;28;20485;-66
2022/03/14 10:03:04;;;;;;;37.28;21.17;;;15.30;50.30;;;;;;5033074;28;20025;-66
2022/03/14 10:05:30;;;;;;;19.70;12.65;;;15.60;51.70;;;;;;5032714;28;20034;-66
2022/03/14 10:07:56;;;;;;;24.65;14.32;;;15.90;49.10;;;;;;5035687;28;20159;-66
2022/03/14 10:10:22;;;;;;;22.17;13.98;;;16.20;49.40;;;;;;5037036;28;20049;-65
2022/03/14 10:12:57;;;;;;;30.50;14.23;;;16.30;49.20;;;;;;5036751;28;20026;-65
2022/03/14 10:15:27;;;;;;;36.33;16.55;;;16.00;48.00;;;;;;5036696;28;20477;-65
2022/03/14 10:17:54;;;;;;;28.30;15.32;;;16.40;48.90;;;;;;5036659;28;20037;-65
2022/03/14 10:20:22;;;;;;;23.40;12.82;;;16.30;47.90;;;;;;5036559;28;20041;-65
2022/03/14 10:22:49;;;;;;;26.02;14.07;;;16.40;48.10;;;;;;5033567;28;20044;-65
2022/03/14 10:25:18;;;;;;;24.23;15.88;;;16.40;45.10;;;;;;5036216;28;20088;-65
2022/03/14 10:27:49;;;;;;;28.80;13.10;;;16.70;48.70;;;;;;5036113;28;20041;-66
2022/03/14 10:30:29;;;;;;;22.70;13.23;;;;;;;;;;5035074;28;20032;-67
2022/03/14 10:33:14;;;;;;;21.30;14.63;;;;;;;;;;5036340;28;20067;-65
2022/03/14 10:35:42;;;;;;;26.73;15.55;;;17.40;47.10;;;;;;5036129;28;20116;-66
2022/03/14 10:38:10;;;;;;;25.55;15.10;;;;;;;;;;5036455;28;20421;-64
2022/03/14 10:40:38;;;;;;;22.27;11.90;;;18.30;45.10;;;;;;5036217;28;20394;-68
2022/03/14 10:43:24;;;;;;;24.55;14.30;;;19.80;43.50;;;;;;5035894;28;20021;-66
2022/03/14 10:45:50;;;;;;;25.00;14.95;;;20.80;42.80;;;;;;5036169;28;20477;-67
2022/03/14 10:48:16;;;;;;;25.30;14.68;;;21.40;42.80;;;;;;5034731;28;20029;-68
2022/03/14 10:50:43;;;;;;;24.73;14.55;;;21.30;40.10;;;;;;5036092;28;20036;-66
2022/03/14 10:53:19;;;;;;;24.42;13.98;;;22.00;40.80;;;;;;5035954;28;20030;-67
2022/03/14 10:55:56;;;;;;;29.90;12.10;;;23.20;39.50;;;;;;5035971;28;20033;-68
2022/03/14 10:58:28;;;;;;;22.67;12.48;;;23.30;40.20;;;;;;5035621;28;20378;-67
2022/03/14 11:00:56;;;;;;;34.33;13.13;;;23.90;38.40;;;;;;5035915;28;20529;-68
2022/03/14 11:03:29;;;;;;;21.30;10.75;;;24.40;38.30;;;;;;5035732;28;20112;-67
2022/03/14 11:06:01;;;;;;;13.07;8.25;;;25.30;37.40;;;;;;5035750;28;20033;-67
2022/03/14 11:08:38;;;;;;;15.02;8.68;;;26.00;36.20;;;;;;5035499;28;20721;-68
2022/03/14 11:11:07;;;;;;;16.95;11.23;;;25.50;34.60;;;;;;5035694;28;20029;-67
2022/03/14 11:13:38;;;;;;;20.63;11.48;;;25.50;34.70;;;;;;5035578;28;20028;-67
2022/03/14 11:16:04;;;;;;;13.10;8.75;;;26.00;36.30;;;;;;5035532;28;20040;-67
2022/03/14 11:18:30;;;;;;;16.90;9.50;;;27.00;34.00;;;;;;5035074;28;20041;-68
2022/03/14 11:20:59;;;;;;;13.63;8.23;;;27.50;33.50;;;;;;5035486;28;20369;-68
2022/03/14 11:23:25;;;;;;;8.23;5.93;;;27.90;33.50;;;;;;5035363;28;20116;-67
2022/03/14 11:25:51;;;;;;;10.40;6.88;;;28.40;32.30;;;;;;5033986;28;20038;-67
2022/03/14 11:28:22;;;;;;;10.90;6.25;;;28.50;31.40;;;;;;5035319;28;20030;-68
2022/03/14 11:30:55;;;;;;;10.68;6.38;;;;;;;;;;5035120;28;20386;-67
2022/03/14 11:33:21;;;;;;;8.77;6.05;;;;;;;;;;5035277;28;20079;-67
2022/03/14 11:35:47;;;;;;;10.65;6.60;;;29.60;32.70;;;;;;5035114;28;20079;-67
2022/03/14 11:38:15;;;;;;;13.75;7.60;;;30.20;30.50;;;;;;5035177;28;20021;-68
2022/03/14 11:40:41;;;;;;;10.32;6.30;;;30.70;30.90;;;;;;5035125;28;20466;-68
2022/03/14 11:43:09;;;;;;;7.97;5.15;;;31.40;30.30;;;;;;5033551;28;20268;-68
2022/03/14 11:45:36;;;;;;;8.70;5.68;;;30.80;30.60;;;;;;5073627;28;20491;-68
2022/03/14 11:48:04;;;;;;;21.60;6.65;;;30.20;30.80;;;;;;5074529;28;20098;-68
2022/03/14 11:50:53;;;;;;;12.80;5.85;;;30.50;30.80;;;;;;5074695;28;20024;-68
2022/03/14 11:53:27;;;;;;;8.00;5.25;;;31.10;31.80;;;;;;5074689;28;20020;-66
2022/03/14 11:55:59;;;;;;;5.55;4.28;;;31.70;30.50;;;;;;5074650;28;20037;-67
2022/03/14 11:58:47;;;;;;;15.73;4.60;;;31.70;30.00;;;;;;5074715;28;20108;-68
2022/03/14 12:01:26;;;;;;;9.80;5.05;;;31.30;30.90;;;;;;5073722;28;20029;-68
2022/03/14 12:03:54;;;;;;;6.63;4.93;;;31.50;31.70;;;;;;5074557;28;20089;-68
2022/03/14 12:06:45;;;;;;;23.35;5.70;;;32.10;30.50;;;;;;5074356;28;20029;-67
2022/03/14 12:09:33;;;;;;;7.13;5.13;;;32.80;30.00;;;;;;5074034;28;20354;-68
2022/03/14 12:12:09;;;;;;;7.22;4.68;;;32.30;28.90;;;;;;5074349;28;20425;-68
2022/03/14 12:14:50;;;;;;;8.90;5.70;;;33.10;29.10;;;;;;5074380;28;20111;-68
2022/03/14 12:17:16;;;;;;;9.85;5.25;;;33.60;29.50;;;;;;5074449;28;20067;-68
2022/03/14 12:19:49;;;;;;;5.43;4.32;;;;;;;;;;5074470;28;20457;-68
2022/03/14 12:22:41;;;;;;;9.60;4.40;;;34.20;29.40;;;;;;5074226;28;20029;-67
2022/03/14 12:25:11;;;;;;;;;;;32.90;28.10;;;;;;5074688;28;20350;-68
2022/03/14 12:27:38;;;;;;;13.07;6.15;;;33.50;29.50;;;;;;5073750;28;19904;-68
2022/03/14 12:30:16;;;;;;;9.65;7.00;;;34.30;29.20;;;;;;5074030;28;20534;-66
2022/03/14 12:32:46;;;;;;;9.70;3.95;;;34.40;28.90;;;;;;5074029;28;20024;-66
2022/03/14 12:35:27;;;;;;;5.22;3.85;;;34.60;29.00;;;;;;5073794;28;20032;-67
2022/03/14 12:38:06;;;;;;;9.83;6.17;;;33.60;28.50;;;;;;5056008;28;20443;-66
2022/03/14 12:40:35;;;;;;;10.63;6.00;;;34.30;28.80;;;;;;5055978;28;20269;-65
2022/03/14 12:43:07;;;;;;;5.57;4.00;;;35.20;28.90;;;;;;5073883;28;20044;-65
2022/03/14 12:45:43;;;;;;;5.35;3.33;;;35.60;28.60;;;;;;5073329;28;20048;-65
2022/03/14 12:48:16;;;;;;;4.70;3.35;;;35.50;28.40;;;;;;5073318;28;20452;-65
2022/03/14 12:50:58;;;;;;;7.43;3.78;;;35.70;28.90;;;;;;5073689;28;20028;-64
2022/03/14 12:53:32;;;;;;;4.57;3.05;;;35.20;28.10;;;;;;5055706;28;20052;-66
2022/03/14 12:56:13;;;;;;;4.90;3.42;;;35.50;28.40;;;;;;5073454;28;20097;-65
2022/03/14 12:58:48;;;;;;;3.53;2.78;;;36.20;28.30;;;;;;5073639;28;20021;-66
2022/03/14 13:01:14;;;;;;;6.57;3.45;;;36.70;28.40;;;;;;5073577;28;20028;-64
2022/03/14 13:03:43;;;;;;;5.40;4.00;;;36.50;28.10;;;;;;5073186;28;20104;-65
2022/03/14 13:06:09;;;;;;;6.32;3.08;;;36.60;27.90;;;;;;5073571;28;20051;-65
2022/03/14 13:08:47;;;;;;;3.63;2.95;;;36.90;27.90;;;;;;5052877;28;20460;-65
2022/03/14 13:11:13;;;;;;;3.78;2.83;;;36.10;27.90;;;;;;5072871;28;20124;-64
2022/03/14 13:13:38;;;;;;;5.43;3.15;;;36.50;28.00;;;;;;5073215;28;20078;-67
2022/03/14 13:16:11;;;;;;;4.13;3.05;;;37.20;27.80;;;;;;5055048;28;20036;-66
2022/03/14 13:18:43;;;;;;;7.65;2.85;;;36.20;27.20;;;;;;5073028;28;20021;-66
2022/03/14 13:21:27;;;;;;;10.73;4.95;;;36.30;27.50;;;;;;5073021;28;20115;-66
2022/03/14 13:24:06;;;;;;;12.07;5.50;;;36.00;28.90;;;;;;5055012;28;20120;-68
2022/03/14 13:26:34;;;;;;;11.35;4.22;;;36.90;27.50;;;;;;5072971;28;20024;-68
2022/03/14 13:29:04;;;;;;;9.75;4.50;;;;;;;;;;5073085;28;20024;-66
2022/03/14 13:31:33;;;;;;;9.23;3.78;;;36.50;27.50;;;;;;5073008;28;20020;-68
2022/03/14 13:33:59;;;;;;;5.88;3.83;;;35.90;27.40;;;;;;5072852;28;20035;-69
2022/03/14 13:36:25;;;;;;;9.77;4.32;;;29.30;28.70;;;;;;5072784;28;20494;-69
2022/03/14 13:38:52;;;;;;;8.57;4.35;;;27.00;30.00;;;;;;5072906;28;20134;-68
2022/03/14 13:41:24;;;;;;;17.83;4.93;;;26.00;30.50;;;;;;5072462;28;20041;-69
2022/03/14 13:44:14;;;;;;;7.15;4.13;;;25.60;31.10;;;;;;5072471;28;20136;-68
2022/03/14 13:46:49;;;;;;;9.45;5.53;;;24.70;32.50;;;;;;5054910;28;20039;-66
2022/03/14 13:49:18;;;;;;;5.68;3.97;;;24.00;32.10;;;;;;5072774;28;20028;-69